Chaska, Minnesota
Current Conditions -  °F | °C
As of 11:53 PM on Thursday 30 Oct 2014 (Local Time) from KFCM Reporting Station
Clear Clear  
Wind Chill: 23°   Ceiling: Unl
Heat Index: 33°   Visibility: 10mi
Dew Point: 14°   Wind: 14mph
Humidity: 46%   Direction: 350°N
Pressure: 30.36"   Gusts: 23mph
Location:  44.79°N, 93.6°W
Report Text: KFCM 310453Z AUTO 35012G20KT 10SM CLR 01/M10 A3036 RMK AO2 PK WND 34027/0405 SLP289 T00061100
Loading
Personal Weather Stations






























Interactive Weather Map
Tropical Storm Tracking
New forecast layout! Learn more

10-Day Weather Forecast

Advertisements
Track Severe Weather on mobile